x

Shumagin Islands - 85nm South Of Sand Point, Ak (46075) Wave Buoy

12:50 - Tue 5th May 2015 All times are UTC.

  • Sig Wave height 9.5ft
  • Peak Period 7s
  • Average Period 6s
  • Wind
    22mph, 27mph gusts
  • Sea Temp 43°f
  • Aire Temp 41°f
  • Sea Pressure 1006.1mb

More Historic Weather Station data

Upgrade to MSW Pro to gain access to the past 30 days of data for over 8000 Wavebouys and Weather Stations around the globe.

Join Pro

Comparision Forecast

View Surf forecast
   
mar 05/05 12:50 9.5ft 7s 6s 22 27 mph 1006.1mb 43f 41f
lun 05/04 11:50 9ft 7s 6s 22 29 mph 1006.6mb 43f 41f
10:50 8ft 6s 5s 22 29 mph 1006.8mb 43f 40f
9:50 7ft 6s 5s 25 29 mph 1007.3mb 43f 40f
8:50 7ft 6s 5s 25 29 mph 1008.1mb 43f 41f
7:50 7ft 6s 5s 22 27 mph 1008.2mb 43f 41f
6:50 6.5ft 6s 5s 22 29 mph 1008.8mb 43f 41f
5:50 7ft 6s 5s 22 29 mph 1008.9mb 43f 41f
4:50 6ft 6s 5s 25 29 mph 1009.2mb 43f 40f
3:50 6ft 5s 5s 25 29 mph 1009.2mb 43f 40f
2:50 5.5ft 5s 4s 22 29 mph 1009.4mb 43f 41f
1:50 5ft 5s 4s 20 25 mph 1010.2mb 43f 41f
12:50 5ft 4s 4s 22 27 mph 1010.6mb 43f 41f
11:50 4.5ft 5s 4s 20 25 mph 1011.1mb 42f 41f
10:50 4.5ft 8s 4s 20 29 mph 1011.7mb 42f 42f
9:50 4.5ft 4s 4s 20 25 mph 1012.1mb 42f 42f
8:50 4.5ft 7s 4s 18 20 mph 1012.7mb 42f 42f
7:50 4.5ft 7s 4s 20 25 mph 1013.2mb 42f 42f
6:50 5ft 8s 5s 18 22 mph 1013.8mb 42f 42f
5:50 5ft 8s 4s 18 22 mph 1014.1mb 42f 42f
4:50 4.5ft 8s 5s 16 22 mph 1014.2mb 42f 42f
3:50 5ft 7s 5s 18 20 mph 1014.7mb 42f 42f
2:50 5ft 7s 5s 16 20 mph 1015.1mb 42f 42f
1:50 5ft 8s 5s 16 20 mph 1015.4mb 42f 43f
12:50 5ft 8s 5s 13 18 mph 1016mb 42f 43f
dom 05/03 11:50 5.5ft 8s 5s 18 20 mph 1016.5mb 42f 43f
10:50 5ft 8s 5s 18 22 mph 1017mb 42f 42f
9:50 5ft 7s 5s 18 22 mph 1017.6mb 42f 42f
8:50 5.5ft 8s 5s 18 22 mph 1018.1mb 42f 43f
7:50 5ft 8s 5s 18 22 mph 1018.5mb 42f 42f
6:50 5.5ft 8s 5s 16 20 mph 1018.8mb 42f 41f
5:50 6ft 8s 5s 16 18 mph 1019mb 42f 41f
4:50 6.5ft 8s 5s 16 20 mph 1019mb 42f 41f
3:50 8ft 8s 6s 16 20 mph 1018.7mb 42f 42f
2:50 7.5ft 8s 6s 13 18 mph 1018.6mb 42f 42f
1:50 7.5ft 8s 6s 13 18 mph 1018.4mb 42f 42f
12:50 8ft 8s 6s 13 18 mph 1018.4mb 42f 42f
11:50 8.5ft 8s 6s 16 18 mph 1018.7mb 42f 42f
10:50 8ft 8s 6s 16 18 mph 1018.7mb 42f 41f
9:50 8ft 8s 6s 16 18 mph 1018.8mb 42f 41f
8:50 8ft 8s 6s 18 20 mph 1018.5mb 42f 41f
7:50 8ft 9s 6s 20 25 mph 1018.4mb 42f 41f
6:50 8ft 9s 6s 20 25 mph 1018.4mb 42f 41f
5:50 9ft 9s 6s 20 25 mph 1017.9mb 42f 42f
4:50 9ft 9s 6s 22 27 mph 1017.5mb 42f 43f
3:50 9.5ft 8s 6s 25 29 mph 1017mb 42f 43f
2:50 10ft 7s 6s 22 29 mph 1016.7mb 43f 43f
1:50 10ft 7s 6s 22 29 mph 1016.4mb 43f 43f
12:50 11.5ft 9s 6s 25 29 mph 1016mb 43f 43f
sáb 05/02 11:50 11ft 9s 6s 25 29 mph 1015.7mb 43f 42f
10:50 12.5ft 9s 6s 29 34 mph 1015.3mb 43f 42f
9:50 11ft 8s 6s 29 34 mph 1015.1mb 42f 42f
8:50 10ft 8s 6s 29 34 mph 1014.7mb 42f 42f
7:50 10.5ft 8s 6s 29 36 mph 1014mb 42f 42f
6:50 10ft 8s 6s 27 31 mph 1013.6mb 43f 42f
5:50 10ft 8s 6s 27 31 mph 1013.3mb 43f 42f
4:50 9ft 8s 5s 25 31 mph 1012.6mb 43f 41f
3:50 8.5ft 5s 5s 29 34 mph 1012.1mb 43f 40f
2:50 8.5ft 6s 5s 27 31 mph 1012.2mb 43f 39f
1:50 7.5ft 6s 5s 27 34 mph 1011.9mb 43f 39f
12:50 6ft 6s 5s 25 29 mph 1011.6mb 43f 38f
11:50 6ft 6s 5s 25 29 mph 1011.6mb 43f 39f
10:50 6ft 5s 4s 22 27 mph 1011.7mb 43f 38f
9:50 5ft 4s 4s 22 29 mph 1011.5mb 43f 41f
8:50 5ft 9s 4s 25 31 mph 1011.9mb 43f 38f
7:50 5ft 10s 5s 22 29 mph 1012.2mb 43f 39f
6:50 4.5ft 9s 5s 20 25 mph 1012.3mb 43f 40f
5:50 4.5ft 8s 5s 20 22 mph 1012.2mb 43f 41f
4:50 4.5ft 8s 5s 13 18 mph 1012.5mb 43f 39f
3:50 4.5ft 8s 5s 16 20 mph 1012.6mb 43f 41f
2:50 5ft 10s 6s 13 16 mph 1012.7mb 43f 41f
1:50 5.5ft 9s 7s 13 18 mph 1012.9mb 43f 42f
12:50 5ft 9s 7s 11 13 mph 1013.5mb 43f 42f
vie 05/01 11:50 5ft 9s 7s 11 13 mph 1014.2mb 44f 42f
10:50 5.5ft 10s 7s 7
mph
1014.9mb 43f 42f
9:50 5.5ft 9s 7s 4 7 mph 1015.5mb 43f 42f
8:50 5.5ft 10s 6s 4 7 mph 1015.7mb 43f 43f
7:50 5.5ft 10s 6s 4
mph
1015.8mb 43f 43f
6:50 6ft 8s 6s 2
mph
1016mb 43f 42f
5:50 6.5ft 9s 6s 4 9 mph 1016.1mb 43f 41f
4:50 6.5ft 10s 7s 4 7 mph 1016.1mb 43f 42f
3:50 6.5ft 9s 7s 4 7 mph 1016.1mb 43f 40f
2:50 7ft 8s 7s 9 11 mph 1016.2mb 43f 40f
1:50 7ft 9s 7s 13 16 mph 1016.4mb 43f 40f
12:50 7ft 8s 7s 13 18 mph 1016.3mb 43f 41f
11:50 7ft 10s 6s 13 18 mph 1016.5mb 43f 40f
10:50 7.5ft 10s 7s 16 20 mph 1016.6mb 43f 39f
9:50 8ft 8s 7s 11 13 mph 1016.5mb 43f 41f
8:50 7.5ft 10s 6s 16 18 mph 1016.3mb 43f 41f
7:50 7.5ft 9s 7s 16 22 mph 1016.1mb 43f 41f
6:50 8ft 9s 6s 16 20 mph 1015.8mb 43f 41f
5:50 8.5ft 8s 7s 18 22 mph 1015.2mb 43f 41f
4:50 8ft 10s 7s 18 22 mph 1014.9mb 43f 42f
3:50 9ft 10s 7s 18 22 mph 1014.7mb 43f 42f
2:50 9ft 11s 7s 18 22 mph 1014.7mb 43f 43f